Capitol Logistics 96




VHHH
Chek Lap Kok International
Hong Kong, HK
RKSI
Incheon International Airport
Seoul, KR

Route Details

Aircraft Information
Group: Large Widebodies
Types: B744,MD11
Route Data
Demand: M
Distance: 1119nm
Duration: 3h 00m
Recm'd Route: OCEA2A OCEAN V3 ENVAR M750 ANLOT B1 APU DRAKE Q11 WP900 L4 LIPLO Y741 ATOTI Y722 OLMEN OLME1C
Origin Wx: VHHH 270600Z 04004KT 340V080 9999 -SHRA FEW005 FEW010CB SCT020 27/25 Q1004 TEMPO 3500 SHRA FEW008CB SCT020
Dest. Wx: RKSI 270530Z 24013KT CAVOK 21/11 Q1001 NOSIG
Notes:

Financial History
Total Freight: 425,574lbs
Average Load: 141,858lbs/flt
Fuel Used: 208,300lbs
Avg. Fuel Used: 69,433lbs/flt
Fuel Expense: $68,798
Avg. Fuel Expense: $22,933
Avg. Fuel Cost: $0.32/lbs
Total Gross Income: $1,108,613
Pilot Pay: $717
Total Expenses: $146,262
Total Revenue: $891,273
Average Revenue: $369,537.72